Time;durP1;ratioP1;P1;durP2;ratioP2;P2;SDS_P1;SDS_P2;PMS_P1;PMS_P2;Temp;Humidity;BMP_temperature;BMP_pressure;BME280_temperature;BME280_humidity;BME280_pressure;Samples;Min_cycle;Max_cycle;Signal;HPM_P1;HPM_P2
2022/01/15 00:01:00;;;;;;;38.67;20.23;;;;;;;-2.06;85.07;100926.19;4987290;28;20210;-76
2022/01/15 00:03:27;;;;;;;28.73;19.23;;;;;;;-2.09;84.91;100917.59;4967589;28;20703;-77
2022/01/15 00:05:54;;;;;;;26.38;18.33;;;;;;;-2.06;85.00;100918.47;4981926;28;20290;-76
2022/01/15 00:08:20;;;;;;;26.60;17.20;;;;;;;-2.06;85.17;100926.19;4969881;28;20207;-76
2022/01/15 00:10:46;;;;;;;26.83;18.53;;;;;;;-2.10;85.17;100914.16;4965002;28;20250;-77
2022/01/15 00:13:21;;;;;;;24.97;16.43;;;;;;;-2.12;84.96;100925.28;4965622;28;20441;-77
2022/01/15 00:15:52;;;;;;;33.10;19.23;;;;;;;-2.12;85.30;100923.56;4965596;28;20254;-76
2022/01/15 00:18:27;;;;;;;21.52;17.58;;;;;;;-2.09;85.35;100915.88;4985712;28;20648;-76
2022/01/15 00:20:53;;;;;;;23.80;18.25;;;;;;;-2.10;85.29;100916.72;4994218;28;20213;-76
2022/01/15 00:23:18;;;;;;;22.77;15.83;;;;;;;-2.14;85.23;100912.41;4996077;28;20604;-77
2022/01/15 00:25:44;;;;;;;24.40;17.60;;;;;;;-2.15;85.32;100909.81;4989329;28;20207;-76
2022/01/15 00:28:09;;;;;;;26.03;16.73;;;;;;;-2.15;85.47;100902.09;4997410;28;20337;-77
2022/01/15 00:30:35;;;;;;;20.93;17.07;;;;;;;-2.15;85.53;100899.53;4966808;28;20222;-76
2022/01/15 00:33:00;;;;;;;40.87;16.70;;;;;;;-2.16;85.37;100902.94;4987880;28;20294;-76
2022/01/15 00:35:28;;;;;;;20.47;15.27;;;;;;;-2.21;85.38;100900.34;4987475;28;20551;-77
2022/01/15 00:37:53;;;;;;;23.63;16.98;;;;;;;-2.26;85.44;100902.84;4987749;28;20210;-76
2022/01/15 00:40:20;;;;;;;24.50;15.23;;;;;;;-2.24;85.59;100897.75;4982655;28;20231;-77
2022/01/15 00:42:46;;;;;;;24.05;15.95;;;;;;;-2.23;85.60;100896.88;4989845;28;20216;-76
2022/01/15 00:45:17;;;;;;;20.37;14.87;;;;;;;-2.24;85.54;100896.03;4984438;28;20498;-76
2022/01/15 00:47:43;;;;;;;29.75;16.13;;;;;;;-2.26;85.34;100889.13;4964314;28;20478;-76
2022/01/15 00:50:10;;;;;;;21.00;15.93;;;;;;;-2.30;85.72;100890.78;4985358;28;20753;-76
2022/01/15 00:52:36;;;;;;;21.50;13.95;;;;;;;-2.34;85.66;100890.78;5000292;28;20226;-77
2022/01/15 00:55:03;;;;;;;38.03;16.20;;;;;;;-2.36;85.74;100879.59;4994336;28;20211;-76
2022/01/15 00:57:28;;;;;;;21.13;14.95;;;;;;;-2.38;85.94;100881.28;4986081;28;20230;-77
2022/01/15 00:59:54;;;;;;;22.87;17.93;;;;;;;-2.43;85.88;100888.09;4972855;28;20257;-76
2022/01/15 01:02:19;;;;;;;35.33;18.43;;;;;;;-2.42;86.16;100887.25;4991794;28;20564;-77
2022/01/15 01:04:45;;;;;;;30.13;16.60;;;;;;;-2.40;86.20;100888.13;4978850;28;20588;-77
2022/01/15 01:07:10;;;;;;;37.57;17.63;;;;;;;-2.43;85.98;100885.53;4991555;28;20262;-77
2022/01/15 01:12:29;;;;;;;31.08;17.35;;;;;;;-2.46;86.23;100879.53;4984155;28;20225;-77
2022/01/15 01:20:39;;;;;;;33.22;16.50;;;;;;;-2.46;86.36;100879.53;5008847;28;20729;-77
2022/01/15 01:23:04;;;;;;;22.23;16.20;;;;;;;-2.47;86.24;100880.34;5019874;28;20743;-77
2022/01/15 01:25:40;;;;;;;20.73;14.70;;;;;;;-2.43;86.46;100872.66;5018236;28;20206;-77
2022/01/15 01:28:11;;;;;;;62.05;19.15;;;;;;;-2.38;86.34;100883.84;5020530;28;20205;-77
2022/01/15 01:30:45;;;;;;;44.25;18.92;;;;;;;-2.40;86.36;100868.41;5024266;28;20292;-77
2022/01/15 01:35:49;;;;;;;27.35;16.13;;;;;;;-2.41;86.25;100876.13;5024534;28;20260;-77
2022/01/15 01:38:26;;;;;;;72.07;19.00;;;;;;;-2.45;86.45;100877.81;5022694;28;20253;-77
2022/01/15 01:40:51;;;;;;;31.58;15.48;;;;;;;-2.49;86.45;100882.03;5022155;28;20226;-77
2022/01/15 01:45:47;;;;;;;19.80;14.10;;;;;;;-2.54;86.85;100886.31;5022444;28;20190;-77
2022/01/15 01:48:13;;;;;;;22.52;16.17;;;;;;;-2.53;86.84;100888.00;5024574;28;20209;-77
2022/01/15 01:50:38;;;;;;;24.70;16.17;;;;;;;-2.50;86.88;100890.59;5024271;28;20222;-77
2022/01/15 01:53:04;;;;;;;27.33;15.50;;;;;;;-2.45;87.01;100885.53;5024897;28;20217;-77
2022/01/15 01:55:30;;;;;;;30.60;15.77;;;;;;;-2.39;87.00;100882.16;5020732;28;20226;-77
2022/01/15 01:57:57;;;;;;;23.53;15.40;;;;;;;-2.34;86.84;100888.19;5023640;28;20471;-77
2022/01/15 02:00:24;;;;;;;22.08;15.45;;;;;;;-2.30;86.92;100895.94;5020506;28;20234;-77
2022/01/15 02:02:51;;;;;;;24.13;15.18;;;;;;;-2.29;87.02;100897.69;5017044;28;20424;-77
2022/01/15 02:05:18;;;;;;;25.60;15.48;;;;;;;-2.33;86.58;100897.63;5004225;28;20221;-77
2022/01/15 02:07:44;;;;;;;48.53;18.23;;;;;;;-2.36;86.73;100889.88;5020316;28;20203;-77
2022/01/15 02:10:13;;;;;;;44.25;16.90;;;;;;;-2.42;86.73;100888.13;5015948;28;20234;-77
2022/01/15 02:12:38;;;;;;;31.70;16.73;;;;;;;-2.43;86.92;100882.94;5019981;28;20202;-77
2022/01/15 02:15:08;;;;;;;28.53;16.27;;;;;;;-2.50;86.69;100887.19;5019027;28;20272;-77
2022/01/15 02:17:34;;;;;;;55.85;20.85;;;;;;;-2.58;86.86;100879.38;5020523;28;20587;-76
2022/01/15 02:25:51;;;;;;;26.65;16.67;;;;;;;-2.68;87.24;100885.28;5023203;28;20214;-77
2022/01/15 02:28:20;;;;;;;66.55;19.95;;;;;;;-2.68;87.55;100886.13;5022518;28;20259;-77
2022/01/15 02:30:50;;;;;;;26.90;16.75;;;;;;;-2.68;87.35;100877.56;5020988;28;20229;-77
2022/01/15 02:33:15;;;;;;;19.27;13.55;;;;;;;-2.64;87.39;100873.31;5005335;28;20289;-77
2022/01/15 02:35:42;;;;;;;24.33;15.73;;;;;;;-2.62;87.40;100872.50;5025717;28;20289;-77
2022/01/15 02:38:09;;;;;;;29.25;16.83;;;;;;;-2.59;87.36;100874.22;5025519;28;20205;-77
2022/01/15 02:40:35;;;;;;;59.38;17.48;;;;;;;-2.54;87.71;100865.72;5026420;28;20284;-77
2022/01/15 02:43:12;;;;;;;26.83;13.65;;;;;;;-2.53;87.29;100874.28;5028332;28;21028;-77
2022/01/15 02:45:42;;;;;;;47.55;18.80;;;;;;;-2.54;87.01;100862.25;5028143;28;20194;-77
2022/01/15 02:48:16;;;;;;;42.42;17.98;;;;;;;-2.64;87.47;100865.59;5022938;28;20250;-77
2022/01/15 02:50:43;;;;;;;56.17;19.02;;;;;;;-2.74;87.47;100862.91;5023047;28;20230;-77
2022/01/15 02:53:10;;;;;;;29.02;16.65;;;;;;;-2.79;87.37;100861.16;5010074;28;20214;-77
2022/01/15 02:55:40;;;;;;;23.67;14.85;;;;;;;-2.81;87.95;100860.25;5024918;28;20680;-77
2022/01/15 02:58:05;;;;;;;55.97;20.70;;;;;;;-2.77;87.69;100864.63;5026242;28;20210;-77
2022/01/15 03:00:30;;;;;;;38.57;14.70;;;;;;;-2.75;87.79;100861.22;5018074;28;20284;-77
2022/01/15 03:02:56;;;;;;;48.33;19.13;;;;;;;-2.76;87.57;100858.59;5021563;28;20579;-77
2022/01/15 03:05:21;;;;;;;26.70;18.13;;;;;;;-2.79;87.63;100858.59;5014569;28;20202;-77
2022/01/15 03:07:47;;;;;;;20.30;15.60;;;;;;;-2.78;87.79;100860.28;5018927;28;20539;-77
2022/01/15 03:10:12;;;;;;;26.70;14.67;;;;;;;-2.76;88.00;100856.03;5020486;28;20337;-76
2022/01/15 03:12:38;;;;;;;30.63;16.30;;;;;;;-2.71;88.06;100846.66;5019263;28;20266;-77
2022/01/15 03:15:06;;;;;;;24.00;16.33;;;;;;;-2.65;87.74;100851.88;5019078;28;21294;-77
2022/01/15 03:17:32;;;;;;;16.73;14.18;;;;;;;-2.67;87.99;100841.56;5025789;28;20202;-77
2022/01/15 03:19:58;;;;;;;23.48;14.45;;;;;;;-2.65;87.68;100836.44;5004109;28;20230;-77
2022/01/15 03:22:24;;;;;;;24.48;15.07;;;;;;;-2.66;87.78;100837.28;5027555;28;20715;-77
2022/01/15 03:24:50;;;;;;;26.40;15.40;;;;;;;-2.67;87.82;100833.00;5025951;28;20202;-77
2022/01/15 03:27:15;;;;;;;26.67;17.10;;;;;;;-2.67;87.92;100831.28;5018705;28;20249;-77
2022/01/15 03:29:41;;;;;;;26.63;15.60;;;;;;;-2.69;87.92;100838.13;5018269;28;20229;-77
2022/01/15 03:32:08;;;;;;;25.63;17.07;;;;;;;-2.68;87.88;100831.25;5022005;28;20205;-77
2022/01/15 03:34:34;;;;;;;33.08;16.55;;;;;;;-2.64;87.70;100833.03;5019948;28;20198;-77
2022/01/15 03:37:00;;;;;;;23.33;14.40;;;;;;;-2.62;87.70;100836.50;5019227;28;20202;-77
2022/01/15 03:39:26;;;;;;;33.08;14.82;;;;;;;-2.63;87.79;100839.03;5020401;28;20696;-77
2022/01/15 03:41:52;;;;;;;38.20;16.23;;;;;;;-2.67;87.68;100845.88;5018244;28;20210;-77
2022/01/15 03:44:17;;;;;;;22.60;15.37;;;;;;;-2.68;87.74;100838.97;5018693;28;20460;-77
2022/01/15 03:46:43;;;;;;;25.70;15.30;;;;;;;-2.67;87.79;100841.56;5024909;28;20260;-78
2022/01/15 03:49:08;;;;;;;36.33;16.63;;;;;;;-2.63;87.82;100841.59;5025389;28;20214;-77
2022/01/15 03:51:34;;;;;;;31.43;18.50;;;;;;;-2.61;87.83;100832.19;5027537;28;20216;-77
2022/01/15 03:53:59;;;;;;;26.30;16.03;;;;;;;-2.63;87.54;100836.47;5023748;28;20238;-77
2022/01/15 03:56:25;;;;;;;70.73;18.27;;;;;;;-2.64;87.59;100830.47;5022900;28;20202;-77
2022/01/15 03:58:50;;;;;;;55.97;18.73;;;;;;;-2.75;87.50;100829.50;5024710;28;20202;-77
2022/01/15 04:01:15;;;;;;;47.90;19.50;;;;;;;-2.83;87.99;100839.69;5023124;28;20509;-77
2022/01/15 04:03:41;;;;;;;24.50;17.97;;;;;;;-2.85;87.93;100837.94;5023532;28;20241;-77
2022/01/15 04:06:07;;;;;;;49.73;20.57;;;;;;;-2.95;88.37;100830.13;5025474;28;20198;-77
2022/01/15 04:08:32;;;;;;;23.58;16.20;;;;;;;-2.99;88.55;100827.53;5025815;28;20404;-77
2022/01/15 04:10:58;;;;;;;30.87;17.67;;;;;;;-2.95;88.43;100826.69;5023989;28;20876;-77
2022/01/15 04:13:23;;;;;;;46.47;18.80;;;;;;;-2.92;88.56;100819.91;5024341;28;20209;-77
2022/01/15 04:15:52;;;;;;;36.07;16.10;;;;;;;-2.90;88.64;100828.47;5023072;28;20202;-77
2022/01/15 04:18:19;;;;;;;30.00;18.33;;;;;;;-2.87;88.67;100819.06;5024323;28;20944;-77
2022/01/15 04:20:44;;;;;;;34.97;16.25;;;;;;;-2.87;88.70;100821.63;5028597;28;20226;-77
2022/01/15 04:23:09;;;;;;;58.17;20.20;;;;;;;-2.88;88.54;100818.22;5031357;28;20308;-77
2022/01/15 04:25:35;;;;;;;35.33;17.27;;;;;;;-2.95;88.58;100812.13;5026006;28;20205;-77
2022/01/15 04:28:02;;;;;;;24.50;15.20;;;;;;;-2.99;88.49;100807.81;5030505;28;20203;-76
2022/01/15 04:30:33;;;;;;;35.83;18.73;;;;;;;-2.99;88.63;100815.53;5026258;28;20244;-78
2022/01/15 04:32:59;;;;;;;64.07;19.57;;;;;;;-2.99;88.68;100814.66;5030595;28;20297;-77
2022/01/15 04:35:24;;;;;;;38.50;19.13;;;;;;;-2.99;88.45;100812.09;5027156;28;20628;-77
2022/01/15 04:37:54;;;;;;;36.87;19.23;;;;;;;-3.00;88.65;100811.22;5030489;28;20206;-77
2022/01/15 04:40:19;;;;;;;26.85;17.80;;;;;;;-2.99;88.71;100804.38;5033919;28;20234;-77
2022/01/15 04:42:45;;;;;;;43.93;16.73;;;;;;;-2.95;88.74;100809.56;5031977;28;20206;-77
2022/01/15 04:45:12;;;;;;;29.33;16.40;;;;;;;-2.92;88.46;100801.91;5026949;28;20198;-77
2022/01/15 04:47:38;;;;;;;31.52;17.83;;;;;;;-2.90;88.56;100802.75;5030188;28;20455;-77
2022/01/15 04:50:07;;;;;;;27.38;16.77;;;;;;;-2.85;88.67;100802.81;5024503;28;20222;-77
2022/01/15 04:52:34;;;;;;;35.10;17.45;;;;;;;-2.82;88.50;100807.13;5025710;28;20230;-77
2022/01/15 04:55:01;;;;;;;26.02;16.67;;;;;;;-2.82;88.81;100805.41;5022848;28;20233;-77
2022/01/15 04:57:28;;;;;;;27.63;15.10;;;;;;;-2.80;88.76;100805.44;5030433;28;20213;-77
2022/01/15 04:59:53;;;;;;;22.33;13.68;;;;;;;-2.75;88.84;100808.94;5027495;28;20233;-77
2022/01/15 05:02:18;;;;;;;25.57;15.30;;;;;;;-2.74;88.99;100810.63;5027131;28;20571;-77
2022/01/15 05:04:44;;;;;;;23.17;14.07;;;;;;;-2.73;88.50;100815.81;5028576;28;20210;-77
2022/01/15 05:07:09;;;;;;;16.87;12.47;;;;;;;-2.71;88.61;100806.38;5021474;28;20260;-77
2022/01/15 05:09:35;;;;;;;26.93;12.93;;;;;;;-2.69;88.58;100803.84;5005975;28;20717;-77
2022/01/15 05:12:10;;;;;;;20.97;13.63;;;;;;;-2.67;88.50;100805.56;5025163;28;20217;-77
2022/01/15 05:14:35;;;;;;;21.60;12.20;;;;;;;-2.65;88.65;100805.56;5007272;28;20209;-77
2022/01/15 05:17:02;;;;;;;21.93;15.83;;;;;;;-2.67;88.43;100799.56;5026200;28;20206;-77
2022/01/15 05:19:28;;;;;;;23.45;14.20;;;;;;;-2.69;88.28;100803.84;5028101;28;20574;-77
2022/01/15 05:21:57;;;;;;;19.65;14.98;;;;;;;-2.70;88.35;100796.94;5024211;28;20590;-77
2022/01/15 05:24:26;;;;;;;19.17;15.30;;;;;;;-2.71;88.55;100800.38;5026633;28;20296;-77
2022/01/15 05:26:53;;;;;;;27.80;14.60;;;;;;;-2.73;88.20;100799.50;5006651;28;20217;-77
2022/01/15 05:29:18;;;;;;;38.17;15.52;;;;;;;-2.77;88.36;100798.59;5022243;28;20261;-77
2022/01/15 05:31:43;;;;;;;20.00;13.20;;;;;;;-2.89;88.53;100793.31;5023532;28;21238;-77
2022/01/15 05:34:10;;;;;;;21.30;14.17;;;;;;;-2.95;88.11;100801.84;5021483;28;20198;-77
2022/01/15 05:36:36;;;;;;;19.45;13.75;;;;;;;-2.96;88.43;100794.13;5022799;28;20225;-77
2022/01/15 05:39:02;;;;;;;29.43;15.63;;;;;;;-2.95;88.51;100796.69;5020357;28;20218;-77
2022/01/15 05:41:27;;;;;;;42.23;20.57;;;;;;;-2.98;88.44;100786.38;5020281;28;20226;-76
2022/01/15 05:43:53;;;;;;;25.33;13.87;;;;;;;-3.01;88.40;100793.22;5021349;28;21019;-77
2022/01/15 05:46:18;;;;;;;26.70;14.47;;;;;;;-3.03;88.67;100785.47;5018482;28;20213;-77
2022/01/15 05:48:43;;;;;;;29.93;14.77;;;;;;;-3.05;88.61;100782.06;5021102;28;20206;-77
2022/01/15 05:51:09;;;;;;;42.70;15.47;;;;;;;-3.11;88.86;100771.69;5020394;28;20230;-76
2022/01/15 05:53:34;;;;;;;33.63;13.07;;;;;;;-3.15;88.87;100778.50;5022149;28;20293;-77
2022/01/15 05:56:00;;;;;;;22.20;13.30;;;;;;;-3.17;88.85;100779.34;5020701;28;20214;-76
2022/01/15 05:58:25;;;;;;;27.27;16.07;;;;;;;-3.15;88.73;100778.50;5024835;28;20301;-77
2022/01/15 06:00:50;;;;;;;25.30;14.37;;;;;;;-3.14;88.98;100769.94;5001678;28;20205;-77
2022/01/15 06:03:16;;;;;;;56.17;18.40;;;;;;;-3.20;88.68;100777.59;5022477;28;20291;-77
2022/01/15 06:05:41;;;;;;;23.73;14.90;;;;;;;-3.21;88.83;100772.44;5021963;28;20195;-77
2022/01/15 06:08:07;;;;;;;28.80;15.30;;;;;;;-3.20;89.06;100776.75;5021224;28;20210;-77
2022/01/15 06:10:34;;;;;;;51.83;16.67;;;;;;;-3.14;89.03;100769.09;5026898;28;20234;-76
2022/01/15 06:12:59;;;;;;;42.22;16.90;;;;;;;-3.19;89.28;100769.03;5026938;28;20218;-76
2022/01/15 06:15:25;;;;;;;48.07;17.80;;;;;;;-3.22;89.25;100776.72;5027782;28;20202;-77
2022/01/15 06:17:50;;;;;;;34.17;15.67;;;;;;;-3.23;89.32;100772.44;5025235;28;20350;-77
2022/01/15 06:20:16;;;;;;;29.43;14.33;;;;;;;-3.20;89.09;100784.44;5026013;28;20646;-77
2022/01/15 06:22:41;;;;;;;58.40;17.87;;;;;;;-3.21;89.72;100786.16;5025893;28;20220;-77
2022/01/15 06:25:08;;;;;;;21.03;15.13;;;;;;;-3.20;89.46;100785.31;5024345;28;20205;-77
2022/01/15 06:27:33;;;;;;;24.95;16.58;;;;;;;-3.14;89.65;100781.94;5022598;28;20197;-77
2022/01/15 06:29:59;;;;;;;39.63;17.50;;;;;;;-3.09;89.37;100782.00;5018536;28;20225;-76
2022/01/15 06:32:27;;;;;;;54.00;28.10;;;;;;;-2.97;89.90;100777.84;5024247;28;20453;-77
2022/01/15 06:34:53;;;;;;;43.70;20.20;;;;;;;-2.96;89.54;100786.44;5021183;28;20241;-77
2022/01/15 06:37:19;;;;;;;22.87;15.57;;;;;;;-2.95;89.45;100776.13;5027976;28;20315;-76
2022/01/15 06:39:45;;;;;;;26.58;15.10;;;;;;;-2.91;89.46;100785.63;5024158;28;20619;-77
2022/01/15 06:42:10;;;;;;;33.30;17.42;;;;;;;-2.88;89.71;100779.66;5026243;28;20897;-78
2022/01/15 06:44:36;;;;;;;50.00;17.37;;;;;;;-2.90;89.62;100777.03;5026658;28;20214;-77
2022/01/15 06:47:01;;;;;;;58.27;16.50;;;;;;;-2.89;89.13;100777.91;5007990;28;20206;-77
2022/01/15 06:49:27;;;;;;;20.97;13.93;;;;;;;-2.87;89.38;100785.66;5017382;28;20215;-77
2022/01/15 06:51:52;;;;;;;27.37;15.17;;;;;;;-2.85;89.34;100787.38;5022114;28;20243;-77
2022/01/15 06:54:18;;;;;;;27.60;17.13;;;;;;;-2.82;89.51;100782.28;5020343;28;20202;-77
2022/01/15 06:56:43;;;;;;;22.03;14.83;;;;;;;-2.79;89.49;100777.16;5024271;28;20281;-77
2022/01/15 06:59:08;;;;;;;29.20;16.90;;;;;;;-2.75;89.21;100778.06;5023759;28;20328;-78
2022/01/15 07:01:34;;;;;;;35.03;27.93;;;;;;;-2.72;89.46;100783.22;5019654;28;20289;-77
2022/01/15 07:03:59;;;;;;;23.57;19.77;;;;;;;-2.70;89.09;100786.66;5023206;28;20209;-77
2022/01/15 07:06:25;;;;;;;26.90;18.63;;;;;;;-2.67;89.25;100781.56;5020819;28;20197;-76
2022/01/15 07:08:50;;;;;;;35.67;14.97;;;;;;;-2.65;89.11;100774.69;5019231;28;20595;-77
2022/01/15 07:11:16;;;;;;;31.10;14.93;;;;;;;-2.66;89.01;100780.72;4992792;23;20304;-76
2022/01/15 07:13:41;;;;;;;25.20;12.67;;;;;;;-2.71;88.95;100790.94;4950816;28;20204;-76
2022/01/15 07:16:07;;;;;;;45.90;15.87;;;;;;;-2.75;89.13;100784.06;4973521;28;20207;-76
2022/01/15 07:18:33;;;;;;;35.80;15.50;;;;;;;-2.84;88.99;100778.81;4964842;28;20224;-76
2022/01/15 07:20:58;;;;;;;42.50;16.70;;;;;;;-2.88;89.27;100778.78;4974505;28;20617;-76
2022/01/15 07:23:23;;;;;;;29.03;14.80;;;;;;;-2.91;89.24;100785.63;4991404;28;20461;-76
2022/01/15 07:25:49;;;;;;;44.80;17.20;;;;;;;-3.02;89.53;100799.22;4990878;28;20222;-75
2022/01/15 07:28:14;;;;;;;31.27;14.07;;;;;;;-3.06;89.51;100793.16;4987285;28;20216;-75
2022/01/15 07:30:40;;;;;;;65.77;18.43;;;;;;;-3.06;89.53;100798.31;4981927;28;20137;-76
2022/01/15 07:33:05;;;;;;;90.37;19.73;;;;;;;-3.07;89.36;100806.88;4989601;28;20227;-75
2022/01/15 07:35:30;;;;;;;60.17;17.40;;;;;;;-3.04;89.53;100806.91;4988201;28;20886;-76
2022/01/15 07:37:56;;;;;;;43.87;17.00;;;;;;;-3.04;89.55;100806.91;4988593;28;20219;-75
2022/01/15 07:40:22;;;;;;;42.17;16.07;;;;;;;-3.05;89.60;100801.72;4986028;28;20231;-75
2022/01/15 07:42:48;;;;;;;55.30;16.50;;;;;;;-3.16;90.01;100804.19;4971447;28;20466;-75
2022/01/15 07:45:15;;;;;;;34.70;16.10;;;;;;;-3.19;90.22;100801.56;4989286;28;20218;-75
2022/01/15 07:47:41;;;;;;;56.55;18.23;;;;;;;-3.19;90.13;100805.00;4995838;28;20210;-75
2022/01/15 07:50:17;;;;;;;72.47;25.48;;;;;;;-3.17;90.33;100797.31;4988760;28;20227;-76
2022/01/15 07:52:43;;;;;;;34.58;14.73;;;;;;;-3.19;90.33;100802.44;4992192;28;20238;-76
2022/01/15 07:55:09;;;;;;;45.33;17.83;;;;;;;-3.17;90.27;100805.03;4994884;28;20864;-76
2022/01/15 07:57:34;;;;;;;35.88;16.48;;;;;;;-3.14;90.34;100794.78;4995947;28;20205;-76
2022/01/15 08:00:00;;;;;;;36.20;14.83;;;;;;;-3.09;90.16;100803.41;4987731;28;20225;-77
2022/01/15 08:02:26;;;;;;;26.83;15.87;;;;;;;-3.04;90.38;100791.47;4996952;28;20293;-76
2022/01/15 08:04:51;;;;;;;39.70;16.80;;;;;;;-3.00;90.16;100797.50;4993795;28;20203;-77
2022/01/15 08:07:18;;;;;;;38.93;18.50;;;;;;;-2.99;90.34;100800.09;4984669;28;21874;-77
2022/01/15 08:09:44;;;;;;;35.78;15.82;;;;;;;-3.01;90.30;100791.50;4987427;28;20249;-77
2022/01/15 08:12:11;;;;;;;32.15;13.05;;;;;;;-2.99;90.15;100794.97;4986988;28;20215;-78
2022/01/15 08:14:36;;;;;;;24.15;15.00;;;;;;;-2.99;89.95;100796.69;4987971;28;20306;-76
2022/01/15 08:17:02;;;;;;;38.77;15.40;;;;;;;-2.98;90.04;100791.53;4989620;28;20285;-76
2022/01/15 08:19:27;;;;;;;28.03;14.60;;;;;;;-2.94;90.44;100787.31;4991942;28;20219;-77
2022/01/15 08:21:53;;;;;;;46.00;18.17;;;;;;;-2.89;90.01;100790.75;4990081;28;20609;-78
2022/01/15 08:24:19;;;;;;;51.93;18.13;;;;;;;-2.85;90.08;100792.53;4992047;28;20215;-77
2022/01/15 08:26:45;;;;;;;46.05;15.82;;;;;;;-2.86;90.08;100788.25;4996355;28;20204;-78
2022/01/15 08:29:10;;;;;;;24.93;13.90;;;;;;;-2.85;89.91;100789.09;5005183;28;20199;-78
2022/01/15 08:31:36;;;;;;;30.97;14.90;;;;;;;-2.81;90.09;100783.13;4989634;28;20556;-76
2022/01/15 08:34:01;;;;;;;19.97;14.50;;;;;;;-2.79;90.13;100790.00;4982329;28;20205;-76
2022/01/15 08:36:27;;;;;;;19.60;14.77;;;;;;;-2.77;90.10;100785.75;4993293;28;20224;-75
2022/01/15 08:38:53;;;;;;;35.72;15.25;;;;;;;-2.74;90.12;100790.06;4993895;28;20227;-76
2022/01/15 08:41:18;;;;;;;28.27;13.20;;;;;;;-2.73;89.86;100794.34;4993402;28;20230;-75
2022/01/15 08:43:44;;;;;;;20.63;12.77;;;;;;;-2.71;89.94;100790.09;4988065;28;20207;-76
2022/01/15 08:46:11;;;;;;;25.77;15.37;;;;;;;-2.70;90.01;100789.22;4991288;28;20216;-76
2022/01/15 08:48:36;;;;;;;24.33;13.60;;;;;;;-2.66;89.90;100783.28;4992215;28;20569;-76
2022/01/15 08:51:02;;;;;;;23.27;13.90;;;;;;;-2.64;89.89;100776.44;4989156;28;20242;-75
2022/01/15 08:53:27;;;;;;;47.47;15.70;;;;;;;-2.61;90.06;100784.19;4996137;28;20262;-76
2022/01/15 08:55:53;;;;;;;31.37;16.47;;;;;;;-2.58;89.82;100780.78;4983882;28;20231;-78
2022/01/15 08:58:20;;;;;;;37.05;16.15;;;;;;;-2.66;89.56;100780.72;4987246;28;20278;-78
2022/01/15 09:00:47;;;;;;;43.03;15.45;;;;;;;-2.64;89.54;100776.44;4986217;28;20215;-77
2022/01/15 09:03:12;;;;;;;26.48;13.55;;;;;;;-2.63;89.69;100780.72;4986039;28;20207;-78
2022/01/15 09:05:38;;;;;;;32.50;16.30;;;;;;;-2.61;89.56;100778.19;4993071;28;20210;-77
2022/01/15 09:08:05;;;;;;;26.27;15.93;;;;;;;-2.57;89.56;100772.19;4993535;28;20834;-77
2022/01/15 09:10:30;;;;;;;28.35;15.00;;;;;;;-2.52;89.54;100779.09;4992051;28;20244;-76
2022/01/15 09:12:56;;;;;;;27.10;12.50;;;;;;;-2.46;89.55;100775.72;4993783;28;20214;-78
2022/01/15 09:15:21;;;;;;;30.63;16.33;;;;;;;-2.39;89.76;100774.06;4994257;28;20794;-76
2022/01/15 09:17:47;;;;;;;22.93;14.30;;;;;;;-2.35;89.36;100771.56;4995205;28;20214;-76
2022/01/15 09:20:13;;;;;;;33.40;15.20;;;;;;;-2.36;89.43;100774.09;4992754;28;20382;-77
2022/01/15 09:22:38;;;;;;;33.20;14.68;;;;;;;-2.39;89.17;100780.06;4995277;28;20215;-77
2022/01/15 09:25:05;;;;;;;36.13;17.10;;;;;;;-2.46;89.45;100779.19;4992046;28;20215;-77
2022/01/15 09:30:19;;;;;;;20.52;14.05;;;;;;;-2.61;89.50;100773.91;4992456;28;20241;-77
2022/01/15 09:32:55;;;;;;;37.08;20.42;;;;;;;-2.50;89.72;100768.84;4995306;28;20497;-76
2022/01/15 09:35:30;;;;;;;24.23;15.38;;;;;;;-2.51;89.45;100767.09;4989360;28;20203;-79
2022/01/15 09:37:56;;;;;;;32.40;17.55;;;;;;;-2.52;89.62;100773.97;4989074;28;20903;-77
2022/01/15 09:40:23;;;;;;;34.67;15.18;;;;;;;-2.50;89.65;100780.00;4983193;28;20250;-76
2022/01/15 09:42:49;;;;;;;32.72;15.15;;;;;;;-2.50;89.79;100761.13;4994195;28;20226;-77
2022/01/15 09:45:17;;;;;;;29.20;15.00;;;;;;;-2.56;89.42;100758.50;4980745;28;20751;-76
2022/01/15 09:47:43;;;;;;;27.38;14.52;;;;;;;-2.61;89.84;100758.47;4990224;28;20517;-77
2022/01/15 09:50:12;;;;;;;58.72;16.10;;;;;;;-2.63;89.94;100773.00;4986430;28;20219;-77
2022/01/15 09:52:37;;;;;;;35.38;14.18;;;;;;;-2.68;90.03;100766.97;4992000;28;20227;-77
2022/01/15 09:55:06;;;;;;;56.20;17.73;;;;;;;-2.64;90.16;100765.31;4992176;28;20220;-76
2022/01/15 09:57:33;;;;;;;27.98;12.90;;;;;;;-2.62;89.93;100759.31;4992719;28;20259;-76
2022/01/15 10:00:01;;;;;;;25.27;13.95;;;;;;;-2.57;89.75;100760.19;4987706;28;20842;-76
2022/01/15 10:02:26;;;;;;;33.20;15.30;;;;;;;-2.47;90.11;100753.44;4994929;28;20207;-76
2022/01/15 10:04:52;;;;;;;27.50;14.50;;;;;;;-2.37;89.99;100756.94;4989784;28;20208;-76
2022/01/15 10:07:22;;;;;;;36.87;15.13;;;;;;;-2.30;89.94;100748.41;4993102;28;20835;-76
2022/01/15 10:09:49;;;;;;;32.65;14.77;;;;;;;-2.22;89.74;100752.75;4990641;28;20199;-77
2022/01/15 10:12:31;;;;;;;29.13;15.90;;;;;;;-2.18;89.51;100747.66;4986188;28;20211;-76
2022/01/15 10:15:04;;;;;;;36.20;16.48;;;;;;;-2.16;89.58;100744.22;4986977;28;20250;-77
2022/01/15 10:17:33;;;;;;;29.70;16.52;;;;;;;-2.14;89.23;100742.50;4994661;28;20223;-77
2022/01/15 10:20:18;;;;;;;34.58;17.95;;;;;;;-2.20;89.40;100742.47;4988166;28;20342;-78
2022/01/15 10:22:46;;;;;;;45.65;17.33;;;;;;;-2.19;89.28;100727.88;4990842;28;20203;-77
2022/01/15 10:25:18;;;;;;;35.97;16.08;;;;;;;-2.18;89.50;100733.06;4989536;28;20283;-76
2022/01/15 10:27:46;;;;;;;32.88;16.55;;;;;;;-2.16;89.41;100733.94;4994038;28;20217;-78
2022/01/15 10:30:23;;;;;;;32.20;16.30;;;;;;;-2.12;89.36;100738.22;4987248;28;20602;-77
2022/01/15 10:33:06;;;;;;;41.22;23.13;;;;;;;-1.94;89.18;100721.19;4988260;28;20500;-77
2022/01/15 10:35:35;;;;;;;33.25;19.63;;;;;;;-1.91;89.38;100718.63;4990877;28;20486;-77
2022/01/15 10:38:05;;;;;;;45.85;18.13;;;;;;;-1.93;88.99;100721.19;4986052;28;20195;-78
2022/01/15 10:40:50;;;;;;;35.88;18.10;;;;;;;-1.94;89.32;100714.31;4986024;28;20229;-77
2022/01/15 10:43:17;;;;;;;31.67;19.05;;;;;;;-1.93;88.83;100713.44;4986096;28;20195;-76
2022/01/15 10:45:55;;;;;;;42.05;16.80;;;;;;;-1.95;88.60;100706.56;4984979;28;20207;-77
2022/01/15 10:48:22;;;;;;;27.95;15.23;;;;;;;-1.95;88.65;100709.16;4973910;28;20203;-76
2022/01/15 10:50:57;;;;;;;23.45;15.55;;;;;;;-1.95;88.65;100701.41;4988824;28;20223;-76
2022/01/15 10:53:39;;;;;;;25.63;16.23;;;;;;;-1.95;88.87;100707.44;4989789;28;20698;-76
2022/01/15 10:56:06;;;;;;;29.23;16.40;;;;;;;-1.96;88.81;100703.16;4991842;28;20208;-76
2022/01/15 10:58:32;;;;;;;29.17;18.00;;;;;;;-1.93;88.68;100697.16;4985480;28;20258;-76
2022/01/15 11:00:57;;;;;;;32.83;18.20;;;;;;;-1.89;88.98;100704.03;4988495;28;20216;-76
2022/01/15 11:03:37;;;;;;;31.30;15.93;;;;;;;-1.84;88.86;100692.03;4992099;28;20210;-76
2022/01/15 11:06:04;;;;;;;40.55;18.92;;;;;;;-1.78;88.71;100692.06;4990686;28;20211;-77
2022/01/15 11:08:35;;;;;;;36.20;18.83;;;;;;;-1.73;88.68;100687.78;4985686;28;20342;-76
2022/01/15 11:11:06;;;;;;;39.20;19.80;;;;;;;-1.71;88.41;100685.22;4992744;28;20237;-76
2022/01/15 11:13:34;;;;;;;32.20;18.50;;;;;;;-1.72;88.52;100681.78;4986436;28;20211;-76
2022/01/15 11:16:15;;;;;;;40.90;18.92;;;;;;;-1.71;88.17;100680.06;4979995;28;20207;-70
2022/01/15 11:18:54;;;;;;;41.13;17.63;;;;;;;-1.69;88.46;100678.38;4996378;28;20237;-76
2022/01/15 11:21:25;;;;;;;30.73;17.42;;;;;;;-1.68;88.54;100680.94;4992482;28;20294;-76
2022/01/15 11:24:06;;;;;;;39.65;20.02;;;;;;;-1.66;88.16;100668.94;4994226;28;20215;-76
2022/01/15 11:26:39;;;;;;;40.40;17.17;;;;;;;-1.68;88.09;100670.63;4996578;28;20203;-76
2022/01/15 11:29:14;;;;;;;48.75;18.33;;;;;;;-1.71;88.04;100669.78;4998423;28;20207;-76
2022/01/15 11:32:06;;;;;;;60.65;20.45;;;;;;;-1.72;87.92;100670.63;4995959;28;20218;-76